Time;durP1;ratioP1;P1;durP2;ratioP2;P2;SDS_P1;SDS_P2;PMS_P1;PMS_P2;Temp;Humidity;BMP_temperature;BMP_pressure;BME280_temperature;BME280_humidity;BME280_pressure;Samples;Min_cycle;Max_cycle;Signal;HPM_P1;HPM_P2
2022/12/10 00:00:36;;;;;;;30.73;15.03;;;0.20;99.90;;;;;;4196907;28;20414;-67
2022/12/10 00:02:36;;;;;;;50.70;19.43;;;0.20;99.90;;;;;;4196303;28;20180;-68
2022/12/10 00:04:37;;;;;;;43.40;18.53;;;0.20;99.90;;;;;;4196986;28;20176;-69
2022/12/10 00:06:40;;;;;;;50.97;20.20;;;0.20;99.90;;;;;;4196995;28;20187;-67
2022/12/10 00:08:41;;;;;;;41.37;16.80;;;0.20;99.90;;;;;;4195521;28;21060;-67
2022/12/10 00:10:42;;;;;;;37.70;16.00;;;0.20;99.90;;;;;;4196720;28;20422;-67
2022/12/10 00:12:42;;;;;;;39.97;17.13;;;0.10;99.90;;;;;;4195809;28;20580;-67
2022/12/10 00:14:43;;;;;;;43.03;18.00;;;0.20;99.90;;;;;;4196481;28;20786;-67
2022/12/10 00:16:44;;;;;;;55.03;20.70;;;0.30;99.90;;;;;;4196582;28;20172;-69
2022/12/10 00:18:46;;;;;;;58.83;19.90;;;0.20;99.90;;;;;;4195240;28;20175;-67
2022/12/10 00:20:46;;;;;;;49.37;19.17;;;0.00;99.90;;;;;;4196692;28;20465;-67
2022/12/10 00:22:47;;;;;;;47.90;20.50;;;0.00;99.90;;;;;;4195813;28;20976;-67
2022/12/10 00:24:47;;;;;;;48.60;20.40;;;0.20;99.90;;;;;;4196462;28;20179;-68
2022/12/10 00:26:48;;;;;;;37.93;17.07;;;0.30;99.90;;;;;;4196540;28;20186;-67
2022/12/10 00:28:51;;;;;;;40.10;17.53;;;0.30;99.90;;;;;;4196489;28;20179;-68
2022/12/10 00:30:51;;;;;;;43.87;18.50;;;0.40;99.90;;;;;;4197028;28;20660;-67
2022/12/10 00:32:52;;;;;;;39.63;17.20;;;0.50;99.90;;;;;;4195761;28;20477;-68
2022/12/10 00:34:53;;;;;;;45.37;19.97;;;0.50;99.90;;;;;;4196431;28;20201;-67
2022/12/10 00:36:53;;;;;;;42.87;17.13;;;0.50;99.90;;;;;;4196329;28;20688;-67
2022/12/10 00:38:54;;;;;;;52.00;18.33;;;0.50;99.90;;;;;;4194533;28;20543;-67
2022/12/10 00:40:55;;;;;;;51.67;20.57;;;0.40;99.90;;;;;;4196319;28;20598;-67
2022/12/10 00:42:55;;;;;;;43.27;18.00;;;0.50;99.90;;;;;;4194203;28;20196;-67
2022/12/10 00:44:56;;;;;;;48.53;18.27;;;0.50;99.90;;;;;;4196118;28;20646;-67
2022/12/10 00:46:57;;;;;;;39.00;16.50;;;0.40;99.90;;;;;;4196180;28;20183;-67
2022/12/10 00:48:59;;;;;;;41.47;17.47;;;0.40;99.90;;;;;;4196013;28;20358;-67
2022/12/10 00:51:07;;;;;;;39.30;16.37;;;0.30;99.90;;;;;;4196393;28;20184;-68
2022/12/10 00:53:08;;;;;;;41.77;17.93;;;0.40;99.90;;;;;;4194256;28;20468;-67
2022/12/10 00:55:08;;;;;;;41.70;18.17;;;0.50;99.90;;;;;;4195968;28;20421;-67
2022/12/10 00:57:09;;;;;;;43.13;17.53;;;0.50;99.90;;;;;;4195954;28;20180;-68
2022/12/10 00:59:10;;;;;;;46.47;17.13;;;0.40;99.90;;;;;;4195861;28;20186;-67
2022/12/10 01:01:27;;;;;;;42.07;17.63;;;0.40;99.90;;;;;;4195945;28;20179;-67
2022/12/10 01:03:28;;;;;;;51.63;20.30;;;0.40;99.90;;;;;;4193925;28;20191;-67
2022/12/10 01:05:28;;;;;;;47.87;18.53;;;0.30;99.90;;;;;;4194523;28;20499;-67
2022/12/10 01:07:29;;;;;;;37.93;15.23;;;0.50;99.90;;;;;;4195849;28;20179;-68
2022/12/10 01:09:30;;;;;;;47.20;19.00;;;0.50;99.90;;;;;;4195906;28;20182;-68
2022/12/10 01:11:37;;;;;;;44.83;17.53;;;0.50;99.90;;;;;;4194556;28;20202;-69
2022/12/10 01:13:38;;;;;;;60.17;19.67;;;0.50;99.90;;;;;;4195435;28;20457;-68
2022/12/10 01:15:39;;;;;;;45.90;18.77;;;0.10;99.90;;;;;;4195809;28;20423;-68
2022/12/10 01:17:40;;;;;;;54.17;19.97;;;-0.10;99.90;;;;;;4195873;28;20418;-68
2022/12/10 01:19:40;;;;;;;51.23;18.77;;;0.10;99.90;;;;;;4195815;28;20180;-67
2022/12/10 01:21:41;;;;;;;49.07;19.07;;;0.10;99.90;;;;;;4194539;28;20183;-67
2022/12/10 01:23:45;;;;;;;43.20;17.10;;;0.10;99.90;;;;;;4195215;28;20203;-67
2022/12/10 01:25:45;;;;;;;46.37;18.20;;;0.10;99.90;;;;;;4194396;28;20313;-67
2022/12/10 01:27:46;;;;;;;37.97;16.47;;;0.20;99.90;;;;;;4195636;28;20889;-67
2022/12/10 01:29:47;;;;;;;51.63;19.43;;;0.20;99.90;;;;;;4194201;28;20685;-67
2022/12/10 01:31:52;;;;;;;49.73;18.57;;;0.30;99.90;;;;;;4195424;28;20566;-67
2022/12/10 01:33:53;;;;;;;44.73;17.50;;;0.30;99.90;;;;;;4194790;28;20211;-67
2022/12/10 01:35:53;;;;;;;47.67;18.97;;;0.40;99.90;;;;;;4195338;28;20509;-67
2022/12/10 01:37:54;;;;;;;50.97;19.63;;;0.40;99.90;;;;;;4195286;28;20457;-68
2022/12/10 01:39:55;;;;;;;54.27;20.10;;;0.50;99.90;;;;;;4195438;28;20254;-67
2022/12/10 01:41:58;;;;;;;47.73;19.83;;;0.40;99.90;;;;;;4195196;28;20176;-68
2022/12/10 01:44:03;;;;;;;48.13;20.30;;;0.30;99.90;;;;;;4193097;28;20203;-67
2022/12/10 01:46:03;;;;;;;47.43;18.43;;;0.20;99.90;;;;;;4186036;28;20427;-67
2022/12/10 01:48:04;;;;;;;49.57;17.87;;;0.40;99.90;;;;;;4178901;28;20431;-68
2022/12/10 01:50:07;;;;;;;47.00;18.27;;;0.30;99.90;;;;;;4178618;28;20180;-67
2022/12/10 01:52:10;;;;;;;45.13;18.63;;;0.20;99.90;;;;;;4176804;28;20176;-68
2022/12/10 01:54:17;;;;;;;55.00;21.73;;;0.20;99.90;;;;;;4178636;28;20926;-67
2022/12/10 01:56:19;;;;;;;55.30;22.07;;;0.20;99.90;;;;;;4186148;28;20429;-67
2022/12/10 01:58:20;;;;;;;53.57;20.47;;;0.20;99.90;;;;;;4211779;28;20866;-67
2022/12/10 02:00:20;;;;;;;48.47;17.97;;;0.20;99.90;;;;;;4211396;28;20417;-68
2022/12/10 02:02:43;;;;;;;52.80;21.60;;;0.30;99.90;;;;;;4211400;28;20171;-67
2022/12/10 02:05:15;;;;;;;53.20;21.50;;;0.40;99.90;;;;;;4210896;28;20239;-68
2022/12/10 02:07:59;;;;;;;45.33;17.67;;;0.40;99.90;;;;;;4193582;28;20573;-67
2022/12/10 02:10:19;;;;;;;38.93;17.83;;;0.30;99.90;;;;;;4210379;28;20461;-67
2022/12/10 02:12:45;;;;;;;47.70;19.13;;;0.40;99.90;;;;;;4211158;28;20429;-67
2022/12/10 02:14:58;;;;;;;47.67;19.80;;;0.40;99.90;;;;;;4210433;28;20965;-67
2022/12/10 02:17:05;;;;;;;60.73;20.50;;;0.40;99.90;;;;;;4211548;28;20433;-68
2022/12/10 02:19:21;;;;;;;58.30;22.13;;;0.30;99.90;;;;;;4210679;28;20502;-67
2022/12/10 02:21:33;;;;;;;37.40;17.53;;;0.20;99.90;;;;;;4209919;28;20412;-67
2022/12/10 02:23:41;;;;;;;52.57;19.87;;;0.30;99.90;;;;;;4210960;28;20891;-67
2022/12/10 02:26:31;;;;;;;47.47;19.73;;;0.40;99.90;;;;;;4211154;28;20416;-67
2022/12/10 02:29:12;;;;;;;47.83;18.90;;;0.40;99.90;;;;;;4211449;28;20420;-68
2022/12/10 02:31:18;;;;;;;43.47;17.57;;;0.30;99.90;;;;;;4211472;28;20409;-67
2022/12/10 02:33:20;;;;;;;46.90;18.27;;;0.20;99.90;;;;;;4209342;28;20484;-69
2022/12/10 02:35:28;;;;;;;53.53;20.80;;;0.30;99.90;;;;;;4211438;28;20928;-67
2022/12/10 02:37:34;;;;;;;49.77;18.87;;;0.30;99.90;;;;;;4210130;28;20489;-69
2022/12/10 02:39:40;;;;;;;49.13;18.40;;;0.30;99.90;;;;;;4210054;28;20416;-67
2022/12/10 02:41:48;;;;;;;40.63;15.83;;;0.40;99.90;;;;;;4200772;28;20577;-68
2022/12/10 02:43:53;;;;;;;42.93;18.50;;;0.50;99.90;;;;;;4192911;28;20453;-68
2022/12/10 02:45:57;;;;;;;51.13;19.37;;;0.50;99.90;;;;;;4194813;28;20796;-68
2022/12/10 02:48:00;;;;;;;35.77;16.70;;;0.50;99.90;;;;;;4193473;28;20505;-69
2022/12/10 02:50:01;;;;;;;40.27;19.60;;;0.50;99.90;;;;;;4193356;28;20428;-67
2022/12/10 02:52:13;;;;;;;56.40;21.53;;;0.30;99.90;;;;;;4194641;28;20420;-69
2022/12/10 02:54:43;;;;;;;45.07;18.10;;;0.20;99.90;;;;;;4193213;28;20502;-68
2022/12/10 02:56:58;;;;;;;49.40;18.50;;;0.20;99.90;;;;;;4197197;28;20998;-68
2022/12/10 02:59:12;;;;;;;38.13;17.07;;;0.20;99.90;;;;;;4196962;28;20512;-68
2022/12/10 03:01:24;;;;;;;50.23;19.10;;;0.20;99.90;;;;;;4196197;28;20418;-68
2022/12/10 03:03:44;;;;;;;45.87;19.27;;;0.10;99.90;;;;;;4193977;28;20445;-68
2022/12/10 03:06:18;;;;;;;44.13;18.37;;;0.20;99.90;;;;;;4193170;28;20425;-67
2022/12/10 03:08:23;;;;;;;53.70;19.63;;;0.20;99.90;;;;;;4193192;28;20418;-67
2022/12/10 03:10:33;;;;;;;52.07;21.13;;;0.20;99.90;;;;;;4194373;28;20476;-68
2022/12/10 03:13:13;;;;;;;56.83;18.30;;;0.30;99.90;;;;;;4192613;28;20432;-68
2022/12/10 03:15:16;;;;;;;44.93;18.27;;;0.30;99.90;;;;;;4192095;28;20448;-68
2022/12/10 03:17:18;;;;;;;39.17;16.37;;;0.10;99.90;;;;;;4190179;28;20877;-68
2022/12/10 03:19:26;;;;;;;54.13;19.93;;;0.00;99.90;;;;;;4193231;28;20517;-68
2022/12/10 03:21:28;;;;;;;92.30;24.37;;;0.10;99.90;;;;;;4193113;28;20489;-68
2022/12/10 03:23:30;;;;;;;69.33;21.67;;;0.00;99.90;;;;;;4193799;28;21087;-68
2022/12/10 03:25:32;;;;;;;50.23;18.30;;;-0.10;99.90;;;;;;4194374;28;20783;-68
2022/12/10 03:27:34;;;;;;;55.97;18.20;;;-0.10;99.90;;;;;;4193081;28;20936;-68
2022/12/10 03:29:50;;;;;;;51.50;19.27;;;-0.20;99.90;;;;;;4192926;28;20470;-68
2022/12/10 03:31:53;;;;;;;42.77;18.23;;;-0.10;99.90;;;;;;4192824;28;20501;-69
2022/12/10 03:33:54;;;;;;;56.37;19.57;;;-0.10;99.90;;;;;;4195335;28;20923;-67
2022/12/10 03:35:56;;;;;;;53.60;18.67;;;0.00;99.90;;;;;;4197238;28;20460;-68
2022/12/10 03:37:57;;;;;;;47.23;19.87;;;0.10;99.90;;;;;;4195887;28;20466;-68
2022/12/10 03:39:59;;;;;;;56.13;20.00;;;0.00;99.90;;;;;;4192135;28;20454;-68
2022/12/10 03:41:59;;;;;;;56.37;20.90;;;0.10;99.90;;;;;;4197310;28;20180;-68
2022/12/10 03:44:01;;;;;;;52.07;17.70;;;0.10;99.90;;;;;;4196350;28;20492;-67
2022/12/10 03:46:02;;;;;;;48.23;19.07;;;0.20;99.90;;;;;;4197026;28;20651;-68
2022/12/10 03:48:03;;;;;;;54.13;20.30;;;0.20;99.90;;;;;;4196977;28;20512;-69
2022/12/10 03:50:04;;;;;;;59.77;21.93;;;0.10;99.90;;;;;;4197150;28;20422;-68
2022/12/10 03:52:05;;;;;;;61.53;22.23;;;0.00;99.90;;;;;;4197056;28;20776;-71
2022/12/10 03:54:06;;;;;;;84.40;22.90;;;0.20;99.90;;;;;;4196302;28;20477;-68
2022/12/10 03:56:06;;;;;;;59.23;20.63;;;0.20;99.90;;;;;;4196917;28;20206;-67
2022/12/10 03:58:07;;;;;;;67.93;21.17;;;0.20;99.90;;;;;;4195588;28;20694;-68
2022/12/10 04:00:09;;;;;;;57.53;21.03;;;0.10;99.90;;;;;;4196827;28;20241;-68
2022/12/10 04:02:10;;;;;;;50.37;18.50;;;0.10;99.90;;;;;;4196301;28;20187;-68
2022/12/10 04:04:11;;;;;;;59.23;20.00;;;0.00;99.90;;;;;;4196882;28;20952;-68
2022/12/10 04:06:18;;;;;;;64.97;21.60;;;0.00;99.90;;;;;;4197016;28;20172;-67
2022/12/10 04:08:19;;;;;;;110.57;25.17;;;0.00;99.90;;;;;;4195605;28;20835;-69
2022/12/10 04:10:20;;;;;;;67.27;20.23;;;0.10;99.90;;;;;;4196672;28;20475;-68
2022/12/10 04:12:20;;;;;;;52.47;19.07;;;0.00;99.90;;;;;;4195921;28;20188;-68
2022/12/10 04:16:40;;;;;;;76.73;25.63;;;0.20;99.90;;;;;;4196600;28;20209;-67
2022/12/10 04:18:41;;;;;;;52.57;17.37;;;0.20;99.90;;;;;;4196632;28;20422;-67
2022/12/10 04:27:39;;;;;;;51.03;17.87;;;0.40;99.90;;;;;;4196776;28;20425;-67
2022/12/10 04:29:40;;;;;;;57.57;19.07;;;0.30;99.90;;;;;;4195024;28;20448;-67
2022/12/10 04:31:41;;;;;;;41.67;15.80;;;0.30;99.90;;;;;;4196279;28;20172;-67
2022/12/10 04:33:41;;;;;;;49.87;17.57;;;0.20;99.90;;;;;;4195707;28;20210;-67
2022/12/10 04:35:42;;;;;;;57.47;19.87;;;0.00;99.90;;;;;;4196118;28;20186;-67
2022/12/10 04:37:43;;;;;;;56.93;19.00;;;0.10;99.90;;;;;;4196099;28;20187;-67
2022/12/10 04:39:44;;;;;;;60.13;21.80;;;0.20;99.90;;;;;;4196243;28;20550;-67
2022/12/10 04:41:48;;;;;;;46.83;17.67;;;0.20;99.90;;;;;;4196099;28;20187;-67
2022/12/10 04:43:48;;;;;;;74.73;17.57;;;0.20;99.90;;;;;;4195574;28;20449;-68
2022/12/10 04:45:49;;;;;;;61.77;18.63;;;-0.10;99.90;;;;;;4196186;28;21303;-67
2022/12/10 04:47:50;;;;;;;48.30;16.33;;;0.00;99.90;;;;;;4195909;28;20685;-68
2022/12/10 04:49:51;;;;;;;53.17;18.00;;;-0.10;99.90;;;;;;4196019;28;20579;-67
2022/12/10 04:51:52;;;;;;;42.73;15.77;;;0.10;99.90;;;;;;4194610;28;20600;-66
2022/12/10 04:53:53;;;;;;;73.23;22.80;;;0.00;99.90;;;;;;4195414;28;21005;-67
2022/12/10 04:55:54;;;;;;;64.67;18.17;;;0.10;99.90;;;;;;4194684;28;20422;-67
2022/12/10 04:57:55;;;;;;;57.23;17.63;;;0.10;99.90;;;;;;4195834;28;20878;-67
2022/12/10 04:59:55;;;;;;;40.90;17.10;;;0.10;99.90;;;;;;4195889;28;20175;-68
2022/12/10 05:01:56;;;;;;;76.50;23.30;;;0.20;99.90;;;;;;4195698;28;20184;-67
2022/12/10 05:04:02;;;;;;;38.70;13.80;;;0.10;99.90;;;;;;4195548;28;20294;-67
2022/12/10 05:06:07;;;;;;;65.77;20.83;;;0.00;99.90;;;;;;4195885;28;20180;-68
2022/12/10 05:08:08;;;;;;;67.80;22.20;;;-0.30;99.90;;;;;;4195799;28;20437;-67
2022/12/10 05:10:09;;;;;;;48.20;17.30;;;-0.10;99.90;;;;;;4195743;28;20954;-67
2022/12/10 05:12:10;;;;;;;57.90;16.43;;;0.00;99.90;;;;;;4195212;28;20442;-68
2022/12/10 05:14:12;;;;;;;43.77;17.77;;;0.10;99.90;;;;;;4195565;28;20982;-67
2022/12/10 05:16:17;;;;;;;34.50;15.00;;;0.10;99.90;;;;;;4194436;28;20182;-69
2022/12/10 05:18:17;;;;;;;65.83;21.63;;;0.20;99.90;;;;;;4195761;28;20426;-67
2022/12/10 05:20:18;;;;;;;43.20;16.30;;;0.30;99.90;;;;;;4195746;28;20453;-68
2022/12/10 05:24:41;;;;;;;51.23;16.63;;;0.10;99.90;;;;;;4181059;28;20701;-68
2022/12/10 05:26:42;;;;;;;64.97;19.13;;;0.00;99.90;;;;;;4193861;28;20876;-67
2022/12/10 05:28:49;;;;;;;95.77;21.17;;;0.10;99.90;;;;;;4195871;28;20422;-67
2022/12/10 05:30:50;;;;;;;37.97;16.73;;;0.20;99.90;;;;;;4192640;28;20958;-68
2022/12/10 05:32:51;;;;;;;48.63;18.33;;;0.20;99.90;;;;;;4195390;28;21011;-68
2022/12/10 05:34:51;;;;;;;59.20;20.23;;;0.20;99.90;;;;;;4195842;28;20437;-66
2022/12/10 05:36:52;;;;;;;58.30;17.93;;;0.20;99.90;;;;;;4195162;28;20233;-68
2022/12/10 05:38:55;;;;;;;50.43;18.93;;;0.30;99.90;;;;;;4194349;28;20278;-68
2022/12/10 05:41:08;;;;;;;38.03;18.77;;;0.00;99.90;;;;;;4195554;28;20685;-68
2022/12/10 05:43:09;;;;;;;39.37;18.70;;;0.10;99.90;;;;;;4194673;28;21365;-68
2022/12/10 05:45:10;;;;;;;46.63;15.60;;;0.30;99.90;;;;;;4195122;28;20429;-68
2022/12/10 05:47:10;;;;;;;42.63;16.13;;;0.30;99.90;;;;;;4195177;28;20184;-67
2022/12/10 05:49:11;;;;;;;44.13;15.37;;;0.40;99.90;;;;;;4195199;28;20568;-68
2022/12/10 05:51:15;;;;;;;40.53;17.53;;;0.30;99.90;;;;;;4193877;28;20181;-68
2022/12/10 05:53:17;;;;;;;37.87;14.93;;;0.40;99.90;;;;;;4194548;28;20616;-67
2022/12/10 05:55:18;;;;;;;38.60;14.10;;;0.40;99.90;;;;;;4194607;28;20418;-68
2022/12/10 05:57:19;;;;;;;35.67;13.93;;;0.40;99.90;;;;;;4193948;28;20434;-68
2022/12/10 05:59:19;;;;;;;34.13;14.60;;;0.40;99.90;;;;;;4195075;28;20187;-68
2022/12/10 06:01:27;;;;;;;37.90;15.60;;;0.50;99.90;;;;;;4195016;28;20175;-68
2022/12/10 06:03:28;;;;;;;30.10;12.57;;;0.50;99.90;;;;;;4194630;28;20207;-68
2022/12/10 06:05:28;;;;;;;35.23;15.07;;;0.60;99.90;;;;;;4195054;28;20452;-68
2022/12/10 06:07:30;;;;;;;31.63;13.87;;;0.50;99.90;;;;;;4195043;28;20191;-67
2022/12/10 06:09:30;;;;;;;29.80;14.27;;;0.40;99.90;;;;;;4193852;28;20175;-66
2022/12/10 06:11:31;;;;;;;29.77;13.43;;;0.40;99.90;;;;;;4194815;28;20442;-67
2022/12/10 06:13:33;;;;;;;37.00;14.87;;;0.50;99.90;;;;;;4194168;28;20231;-67
2022/12/10 06:15:34;;;;;;;30.93;13.60;;;0.50;99.90;;;;;;4194433;28;20453;-69
2022/12/10 06:17:36;;;;;;;32.10;13.57;;;0.50;99.90;;;;;;4195177;28;20934;-68
2022/12/10 06:19:36;;;;;;;28.97;12.53;;;0.50;99.90;;;;;;4194984;28;20182;-67
2022/12/10 06:21:38;;;;;;;34.20;15.03;;;0.50;99.90;;;;;;4195151;28;20422;-67
2022/12/10 06:23:40;;;;;;;28.90;12.23;;;0.50;99.90;;;;;;4195741;28;20207;-68
2022/12/10 06:25:40;;;;;;;30.50;13.10;;;0.40;99.90;;;;;;4193621;28;20500;-67
2022/12/10 06:27:41;;;;;;;24.83;12.63;;;0.50;99.90;;;;;;4194820;28;20418;-68
2022/12/10 06:29:42;;;;;;;25.27;11.50;;;0.40;99.90;;;;;;4194271;28;20190;-67
2022/12/10 06:31:42;;;;;;;26.87;12.10;;;0.40;99.90;;;;;;4194822;28;20270;-67
2022/12/10 06:33:43;;;;;;;28.17;13.53;;;0.50;99.90;;;;;;4193185;28;20219;-68
2022/12/10 06:35:44;;;;;;;26.90;11.83;;;0.60;99.90;;;;;;4194655;28;20279;-67
2022/12/10 06:37:45;;;;;;;26.43;12.53;;;0.70;99.90;;;;;;4194682;28;20527;-67
2022/12/10 06:39:45;;;;;;;27.27;12.77;;;0.70;99.90;;;;;;4194653;28;20175;-67
2022/12/10 06:41:46;;;;;;;33.47;13.87;;;0.60;99.90;;;;;;4194772;28;20199;-67
2022/12/10 06:43:48;;;;;;;27.33;12.50;;;0.60;99.90;;;;;;4194015;28;20199;-67
2022/12/10 06:45:48;;;;;;;24.17;12.03;;;0.50;99.90;;;;;;4194607;28;20230;-68
2022/12/10 06:47:49;;;;;;;29.20;12.43;;;0.60;99.90;;;;;;4194741;28;20414;-67
2022/12/10 06:49:50;;;;;;;30.90;13.20;;;0.60;99.90;;;;;;4194650;28;20188;-68
2022/12/10 06:51:50;;;;;;;28.37;12.43;;;0.60;99.90;;;;;;4193180;28;20234;-67
2022/12/10 06:53:51;;;;;;;26.33;11.23;;;0.60;99.90;;;;;;4193871;28;20314;-67
2022/12/10 06:55:52;;;;;;;28.00;13.03;;;0.60;99.90;;;;;;4193416;28;20183;-68
2022/12/10 06:57:53;;;;;;;29.30;12.30;;;0.60;99.90;;;;;;4194563;28;20711;-67
2022/12/10 06:59:54;;;;;;;24.67;11.73;;;0.60;99.90;;;;;;4194793;28;20207;-67
2022/12/10 07:01:55;;;;;;;29.20;12.70;;;0.50;99.90;;;;;;4195127;28;20564;-69
2022/12/10 07:03:56;;;;;;;28.80;13.17;;;0.50;99.90;;;;;;4194500;28;20210;-68
2022/12/10 07:05:59;;;;;;;24.00;10.93;;;0.60;99.90;;;;;;4196655;28;20685;-67
2022/12/10 07:08:00;;;;;;;28.57;11.03;;;0.60;99.90;;;;;;4197773;28;20801;-68
2022/12/10 07:10:01;;;;;;;24.90;11.43;;;0.60;99.90;;;;;;4197834;28;20422;-67
2022/12/10 07:12:01;;;;;;;18.43;9.50;;;0.60;99.90;;;;;;4197620;28;20290;-68
2022/12/10 07:14:02;;;;;;;24.70;12.10;;;0.50;99.90;;;;;;4197260;28;20203;-67
2022/12/10 07:16:18;;;;;;;23.87;11.57;;;0.50;99.90;;;;;;4196767;28;20266;-69
2022/12/10 07:18:19;;;;;;;23.07;9.77;;;0.50;99.90;;;;;;4196605;28;20457;-67
2022/12/10 07:20:19;;;;;;;26.70;10.30;;;0.40;99.90;;;;;;4197517;28;20425;-68
2022/12/10 07:22:20;;;;;;;21.37;9.63;;;0.30;99.90;;;;;;4197003;28;20183;-67
2022/12/10 07:24:21;;;;;;;20.67;11.53;;;0.30;99.90;;;;;;4197580;28;20308;-68
2022/12/10 07:26:22;;;;;;;17.53;9.23;;;0.40;99.90;;;;;;4197297;28;20184;-68
2022/12/10 07:28:22;;;;;;;23.03;10.73;;;0.40;99.90;;;;;;4197089;28;20199;-67
2022/12/10 07:30:23;;;;;;;23.00;9.97;;;0.50;99.90;;;;;;4185838;28;20438;-67
2022/12/10 07:32:24;;;;;;;24.30;10.53;;;0.50;99.90;;;;;;4180106;28;20207;-68
2022/12/10 07:34:24;;;;;;;24.07;11.67;;;0.50;99.90;;;;;;4179332;28;20216;-67
2022/12/10 07:36:26;;;;;;;24.27;11.83;;;0.50;99.90;;;;;;4180695;28;20195;-67
2022/12/10 07:38:27;;;;;;;20.90;9.97;;;0.50;99.90;;;;;;4180997;28;20912;-68
2022/12/10 07:40:27;;;;;;;19.90;11.10;;;0.60;99.90;;;;;;4180563;28;20426;-68
2022/12/10 07:42:28;;;;;;;18.90;10.00;;;0.70;99.90;;;;;;4179905;28;20466;-67
2022/12/10 07:44:29;;;;;;;21.03;9.67;;;0.70;99.90;;;;;;4180752;28;20234;-67
2022/12/10 07:46:32;;;;;;;19.47;9.23;;;0.70;99.90;;;;;;4180539;28;20184;-66
2022/12/10 07:48:34;;;;;;;21.13;11.43;;;0.60;99.90;;;;;;4180590;28;20263;-68
2022/12/10 07:50:34;;;;;;;19.00;10.30;;;0.60;99.90;;;;;;4179448;28;20425;-67
2022/12/10 07:52:36;;;;;;;21.57;13.37;;;0.50;99.90;;;;;;4179766;28;20426;-67
2022/12/10 07:54:36;;;;;;;20.27;10.83;;;0.60;99.90;;;;;;4180293;28;20221;-67
2022/12/10 07:56:37;;;;;;;18.67;9.37;;;0.70;99.90;;;;;;4180371;28;20457;-67
2022/12/10 07:58:42;;;;;;;20.23;10.00;;;0.70;99.90;;;;;;4180251;28;20187;-66
2022/12/10 08:00:43;;;;;;;17.47;9.97;;;0.60;99.90;;;;;;4178967;28;20716;-66
2022/12/10 08:02:44;;;;;;;20.30;10.57;;;0.50;99.90;;;;;;4178327;28;20439;-67
2022/12/10 08:04:44;;;;;;;18.70;10.63;;;0.50;99.90;;;;;;4180205;28;20185;-67
2022/12/10 08:06:45;;;;;;;19.20;10.53;;;0.70;99.90;;;;;;4180072;28;20184;-67
2022/12/10 08:08:47;;;;;;;15.93;9.23;;;0.90;99.90;;;;;;4180338;28;20191;-66
2022/12/10 08:10:47;;;;;;;16.03;9.00;;;0.90;99.90;;;;;;4178990;28;20853;-66
2022/12/10 08:12:48;;;;;;;19.20;10.70;;;0.80;99.90;;;;;;4179792;28;20443;-67
2022/12/10 08:14:49;;;;;;;18.90;10.20;;;0.80;99.90;;;;;;4179127;28;20221;-67
2022/12/10 08:16:49;;;;;;;21.33;10.23;;;0.70;99.90;;;;;;4180249;28;20184;-67
2022/12/10 08:18:50;;;;;;;14.97;9.03;;;0.70;99.90;;;;;;4179406;28;20176;-67
2022/12/10 08:20:51;;;;;;;13.83;7.97;;;0.70;99.90;;;;;;4180114;28;20257;-69
2022/12/10 08:22:51;;;;;;;18.40;9.47;;;0.40;99.90;;;;;;4179291;28;20205;-66
2022/12/10 08:24:52;;;;;;;19.83;9.17;;;0.30;99.90;;;;;;4180055;28;20184;-67
2022/12/10 08:26:53;;;;;;;16.83;9.23;;;0.30;99.90;;;;;;4179951;28;20227;-66
2022/12/10 08:28:55;;;;;;;16.87;10.00;;;0.40;99.90;;;;;;4179895;28;20182;-67
2022/12/10 08:30:55;;;;;;;18.07;9.47;;;0.60;99.90;;;;;;4184485;28;20179;-67
2022/12/10 08:32:56;;;;;;;16.97;9.47;;;0.60;99.90;;;;;;4195613;28;20976;-68
2022/12/10 08:34:57;;;;;;;16.93;9.70;;;0.70;99.90;;;;;;4196410;28;20662;-66
2022/12/10 08:36:57;;;;;;;17.03;8.97;;;0.90;99.90;;;;;;4194803;28;20680;-67
2022/12/10 08:38:58;;;;;;;20.00;10.20;;;1.00;99.90;;;;;;4196301;28;20187;-67
2022/12/10 08:41:20;;;;;;;19.33;9.53;;;0.90;99.90;;;;;;4199902;28;20308;-67
2022/12/10 08:43:20;;;;;;;18.60;9.33;;;0.70;99.90;;;;;;4178723;28;20631;-66
2022/12/10 08:45:21;;;;;;;18.70;10.63;;;0.80;99.90;;;;;;4179722;28;20436;-68
2022/12/10 08:47:22;;;;;;;17.07;10.10;;;0.80;99.90;;;;;;4179734;28;20194;-67
2022/12/10 08:49:23;;;;;;;20.20;9.83;;;0.90;99.90;;;;;;4179615;28;20186;-66
2022/12/10 08:51:23;;;;;;;18.43;9.53;;;1.10;99.90;;;;;;4193459;28;20687;-69
2022/12/10 08:53:24;;;;;;;16.03;8.93;;;1.20;99.90;;;;;;4195267;28;20212;-67
2022/12/10 08:55:25;;;;;;;18.90;10.47;;;1.20;99.90;;;;;;4195514;28;20181;-67
2022/12/10 08:57:26;;;;;;;17.60;10.30;;;1.20;99.90;;;;;;4192180;28;20782;-67
2022/12/10 08:59:26;;;;;;;19.23;10.07;;;1.40;99.90;;;;;;4195330;28;20182;-66
2022/12/10 09:01:27;;;;;;;19.00;9.53;;;1.40;99.90;;;;;;4195409;28;20191;-66
2022/12/10 09:03:28;;;;;;;19.50;10.17;;;1.40;99.90;;;;;;4191988;28;20214;-67
2022/12/10 09:05:29;;;;;;;18.00;9.37;;;1.50;99.90;;;;;;4195474;28;20180;-66
2022/12/10 09:07:30;;;;;;;19.17;9.83;;;1.60;99.90;;;;;;4195399;28;20298;-66
2022/12/10 09:09:31;;;;;;;16.97;9.80;;;1.70;99.70;;;;;;4195407;28;20835;-66
2022/12/10 09:11:34;;;;;;;17.30;10.70;;;1.60;99.50;;;;;;4193749;28;20211;-66
2022/12/10 09:13:35;;;;;;;17.10;9.17;;;1.60;99.80;;;;;;4193313;28;20511;-66
2022/12/10 09:15:36;;;;;;;17.00;9.70;;;1.50;99.80;;;;;;4195506;28;20776;-67
2022/12/10 09:17:38;;;;;;;18.87;9.17;;;1.50;99.30;;;;;;4195186;28;20207;-67
2022/12/10 09:19:38;;;;;;;20.83;10.17;;;1.20;99.90;;;;;;4196113;28;20763;-65
2022/12/10 09:21:39;;;;;;;19.33;9.73;;;1.20;99.90;;;;;;4195726;28;20425;-66
2022/12/10 09:23:41;;;;;;;20.13;9.80;;;1.20;99.90;;;;;;4193581;28;20211;-66
2022/12/10 09:25:42;;;;;;;18.03;9.27;;;1.20;99.90;;;;;;4193949;28;20214;-66
2022/12/10 09:27:43;;;;;;;20.57;12.20;;;1.30;99.90;;;;;;4195848;28;20429;-66
2022/12/10 09:29:44;;;;;;;17.40;10.20;;;1.40;99.60;;;;;;4193508;28;20179;-67
2022/12/10 09:31:45;;;;;;;17.73;9.27;;;1.20;99.90;;;;;;4195153;28;20437;-68
2022/12/10 09:33:48;;;;;;;18.90;10.43;;;1.40;99.90;;;;;;4193006;28;20699;-65
2022/12/10 09:35:49;;;;;;;18.33;10.20;;;1.40;99.10;;;;;;4195198;28;20189;-66
2022/12/10 09:37:50;;;;;;;17.97;10.30;;;1.20;99.90;;;;;;4194863;28;20436;-66
2022/12/10 09:39:51;;;;;;;18.17;9.73;;;1.00;99.90;;;;;;4195148;28;20181;-66
2022/12/10 09:42:20;;;;;;;22.20;11.87;;;1.10;99.90;;;;;;4199278;28;20481;-65
2022/12/10 09:45:19;;;;;;;18.37;10.20;;;1.30;99.90;;;;;;4202133;28;20203;-66
2022/12/10 09:47:31;;;;;;;19.57;10.43;;;1.10;99.50;;;;;;4167513;28;20440;-66
2022/12/10 09:49:56;;;;;;;18.70;9.17;;;1.10;99.90;;;;;;4181118;28;20495;-67
2022/12/10 09:52:02;;;;;;;19.00;10.00;;;1.10;99.90;;;;;;4192165;28;20466;-65
2022/12/10 09:54:28;;;;;;;18.67;11.50;;;1.00;99.90;;;;;;4193310;28;21156;-66
2022/12/10 09:56:36;;;;;;;19.10;10.80;;;0.90;99.90;;;;;;4194059;28;20525;-65
2022/12/10 09:58:37;;;;;;;18.67;10.10;;;0.90;99.90;;;;;;4193759;28;20520;-66
2022/12/10 10:00:44;;;;;;;16.97;9.80;;;1.00;99.90;;;;;;4195188;28;20433;-66
2022/12/10 10:02:46;;;;;;;17.23;9.50;;;1.00;99.90;;;;;;4193110;28;20445;-66
2022/12/10 10:04:49;;;;;;;15.00;8.63;;;1.20;99.80;;;;;;4193332;28;20427;-66
2022/12/10 10:06:50;;;;;;;18.40;9.00;;;1.00;98.90;;;;;;4193388;28;20487;-68
2022/12/10 10:08:58;;;;;;;15.23;9.13;;;0.80;99.60;;;;;;4195234;28;20869;-67
2022/12/10 10:11:00;;;;;;;15.00;8.77;;;0.80;99.90;;;;;;4207586;28;20511;-67
2022/12/10 10:13:21;;;;;;;15.53;9.43;;;0.80;99.90;;;;;;4209830;28;20872;-67
2022/12/10 10:15:31;;;;;;;18.47;9.13;;;0.70;99.50;;;;;;4210692;28;20496;-67
2022/12/10 10:17:37;;;;;;;15.53;8.47;;;0.80;99.90;;;;;;4210821;28;20466;-66
2022/12/10 10:19:41;;;;;;;16.90;9.93;;;0.90;99.90;;;;;;4210415;28;20421;-66
2022/12/10 10:21:47;;;;;;;14.93;8.20;;;0.80;99.80;;;;;;4210479;28;20931;-67
2022/12/10 10:23:48;;;;;;;19.13;9.77;;;0.90;99.70;;;;;;4210040;28;20543;-67
2022/12/10 10:25:49;;;;;;;16.67;9.27;;;0.90;99.90;;;;;;4211802;28;20494;-66
2022/12/10 10:27:50;;;;;;;13.47;8.47;;;1.00;99.30;;;;;;4202179;28;20414;-67
2022/12/10 10:29:53;;;;;;;16.47;9.10;;;1.10;98.80;;;;;;4195035;28;20194;-66
2022/12/10 10:32:19;;;;;;;15.47;8.87;;;1.20;98.70;;;;;;4193636;28;20720;-67
2022/12/10 10:34:22;;;;;;;13.63;7.97;;;1.20;98.50;;;;;;4194955;28;20466;-67
2022/12/10 10:36:31;;;;;;;14.60;8.53;;;1.30;98.20;;;;;;4193552;28;20424;-64
2022/12/10 10:38:32;;;;;;;15.63;8.80;;;1.10;97.90;;;;;;4193715;28;20583;-64
2022/12/10 10:40:41;;;;;;;16.53;8.57;;;1.00;98.30;;;;;;4194952;28;20444;-64
2022/12/10 10:42:45;;;;;;;15.43;8.30;;;0.90;98.10;;;;;;4196356;28;20225;-65
2022/12/10 10:44:45;;;;;;;17.37;8.47;;;1.10;98.50;;;;;;4196949;28;20499;-64
2022/12/10 10:46:50;;;;;;;14.90;8.07;;;1.00;97.90;;;;;;4198012;28;20925;-65
2022/12/10 10:48:51;;;;;;;15.53;7.93;;;0.90;97.90;;;;;;4197008;28;20604;-64